Audubon, Minnesota
Current Conditions -  °F | °C
As of 7:55 AM on Monday 24 Nov 2014 (Local Time) from KDTL Reporting Station
Light Snow Light Snow  
Wind Chill: -6°   Ceiling: 400
Heat Index: 12°   Visibility: 2mi
Dew Point:   Wind: 20mph
Humidity: 85%   Direction: 340°NNW
Pressure: 29.57"   Gusts: 28mph
Location:  46.86°N, 95.98°W
Report Text: KDTL 241355Z AUTO 34017G24KT 2SM -SN OVC004 M11/M13 A2957 RMK AO2
Loading
Personal Weather Stations






























Interactive Weather Map New forecast layout! Learn more

10-Day Weather Forecast

Advertisements
Track Severe Weather on mobile